createdAt,value
2022-10-26T00:17:44.918Z,74908.69
2022-10-26T00:27:51.820Z,74896.56
2022-10-26T00:37:59.562Z,74898.59
2022-10-26T00:48:08.690Z,74892.50
2022-10-26T00:58:14.700Z,74892.50
2022-10-26T01:08:19.331Z,74896.56
2022-10-26T01:18:43.732Z,74896.56
2022-10-26T01:29:07.366Z,74904.66
2022-10-26T01:39:19.373Z,74908.69
2022-10-26T01:49:28.610Z,74908.69
2022-10-26T01:59:44.996Z,74918.81
2022-10-26T02:09:57.384Z,74916.78
2022-10-26T02:20:22.782Z,74937.03
2022-10-26T02:30:27.266Z,74945.13
2022-10-26T02:40:32.967Z,74951.19
2022-10-26T02:51:08.552Z,74955.25
2022-10-26T03:01:29.493Z,74965.34
2022-10-26T03:11:34.145Z,74983.56
2022-10-26T03:21:42.510Z,74991.66
2022-10-26T03:31:49.089Z,74997.72
2022-10-26T03:41:56.534Z,75015.94
2022-10-26T03:52:04.666Z,75013.91
2022-10-26T04:02:12.165Z,75034.16
2022-10-26T04:12:17.425Z,75030.09
2022-10-26T04:22:24.593Z,75058.44
2022-10-26T04:32:27.847Z,75064.50
2022-10-26T04:42:34.138Z,75058.44
2022-10-26T04:52:36.586Z,75064.50
2022-10-26T05:02:38.933Z,75070.56
2022-10-26T05:12:43.488Z,75082.72
2022-10-26T05:22:54.666Z,75107.00
2022-10-26T05:33:01.087Z,75111.03
2022-10-26T05:43:04.125Z,75109.03
2022-10-26T05:53:12.909Z,75107.00
2022-10-26T06:03:35.343Z,75109.03
2022-10-26T06:13:41.130Z,75102.94
2022-10-26T06:23:58.211Z,75094.84
2022-10-26T06:34:02.019Z,75086.75
2022-10-26T06:44:10.174Z,75086.75
2022-10-26T06:54:27.754Z,75068.56
2022-10-26T07:04:32.329Z,75044.28
2022-10-26T07:14:36.825Z,75056.41
2022-10-26T07:24:41.894Z,75066.53
2022-10-26T07:34:46.366Z,75066.53
2022-10-26T07:44:48.801Z,75070.56
2022-10-26T07:54:56.145Z,75060.47
2022-10-26T08:05:00.171Z,75078.66
2022-10-26T08:15:05.086Z,75100.94
2022-10-26T08:25:07.813Z,75145.44
2022-10-26T08:35:15.792Z,75167.69
2022-10-26T08:45:37.056Z,75175.78
2022-10-26T08:55:45.903Z,75189.97
2022-10-26T09:06:06.463Z,75189.97
2022-10-26T09:16:16.883Z,75200.06
2022-10-26T09:26:55.945Z,75165.69
2022-10-26T09:37:01.039Z,75159.59
2022-10-26T09:47:18.837Z,75147.47
2022-10-26T09:57:22.816Z,75129.25
2022-10-26T10:07:27.601Z,75115.09
2022-10-26T10:17:30.679Z,75109.03
2022-10-26T10:27:35.157Z,75068.56
2022-10-26T10:37:43.052Z,75066.53
2022-10-26T10:48:02.709Z,75042.25
2022-10-26T10:58:08.848Z,75022.00
2022-10-26T11:08:36.473Z,75009.88
2022-10-26T11:18:56.886Z,75013.91
2022-10-26T11:29:04.476Z,74957.25
2022-10-26T11:39:47.605Z,74979.53
2022-10-26T11:50:09.012Z,75022.00
2022-10-26T12:00:21.338Z,75054.38
2022-10-26T12:10:25.492Z,75068.56
2022-10-26T12:20:52.181Z,75066.53
2022-10-26T12:31:33.959Z,75058.44
2022-10-26T12:41:39.440Z,75064.50
2022-10-26T12:51:42.657Z,75044.28
2022-10-26T13:01:59.475Z,75056.41
2022-10-26T13:12:02.674Z,75056.41
2022-10-26T13:22:19.822Z,75070.56
2022-10-26T13:32:24.229Z,75060.47
2022-10-26T13:42:45.876Z,75070.56
2022-10-26T13:53:05.643Z,75068.56
2022-10-26T14:03:15.337Z,75100.94
2022-10-26T14:13:26.480Z,75082.72
2022-10-26T14:23:45.399Z,75086.75
2022-10-26T14:33:47.602Z,75125.22
2022-10-26T14:43:52.144Z,75151.50
2022-10-26T14:54:01.299Z,75179.84
2022-10-26T15:04:09.110Z,75208.16
2022-10-26T15:14:14.560Z,75232.47
2022-10-26T15:24:26.924Z,75240.56
2022-10-26T15:34:29.334Z,75248.66
2022-10-26T15:44:33.642Z,75274.94
2022-10-26T15:54:35.672Z,75293.16
2022-10-26T16:04:40.029Z,75309.34
2022-10-26T16:15:03.890Z,75341.72
2022-10-26T16:25:04.113Z,75366.00
2022-10-26T16:35:06.462Z,75390.28
2022-10-26T16:45:08.694Z,75396.38
2022-10-26T16:55:13.152Z,75410.53
2022-10-26T17:05:20.045Z,75422.69
2022-10-26T17:15:28.457Z,75434.81
2022-10-26T17:25:34.420Z,75438.88
2022-10-26T17:35:36.483Z,75448.97
2022-10-26T17:45:41.049Z,75463.16
2022-10-26T17:55:43.746Z,75467.19
2022-10-26T18:05:51.484Z,75465.16
2022-10-26T18:15:54.336Z,75479.34
2022-10-26T18:26:11.438Z,75487.44
2022-10-26T18:36:17.763Z,75489.44
2022-10-26T18:46:24.780Z,75497.56
2022-10-26T18:56:30.892Z,75511.72
2022-10-26T19:06:35.753Z,75507.66
2022-10-26T19:16:47.903Z,75511.72
2022-10-26T19:26:56.787Z,75523.84
2022-10-26T19:37:01.587Z,75513.75
2022-10-26T19:47:05.599Z,75491.47
2022-10-26T19:57:10.712Z,75428.75
2022-10-26T20:07:14.434Z,75434.81
2022-10-26T20:17:17.241Z,75422.69
2022-10-26T20:27:19.409Z,75424.69
2022-10-26T20:37:21.760Z,75446.97
2022-10-26T20:47:29.943Z,75475.28
2022-10-26T20:57:33.349Z,75503.63
2022-10-26T21:07:35.484Z,75523.84
2022-10-26T21:17:37.652Z,75546.13
2022-10-26T21:27:46.400Z,75487.44
2022-10-26T21:37:50.880Z,75525.88
2022-10-26T21:47:55.531Z,75572.44
2022-10-26T22:08:06.342Z,75614.94
2022-10-26T22:18:10.867Z,75621.00
2022-10-26T22:28:17.953Z,75629.09
2022-10-26T22:38:22.799Z,75635.16
2022-10-26T22:48:27.561Z,75629.09
2022-10-26T22:58:29.544Z,75627.06
2022-10-26T23:08:35.552Z,75616.94
2022-10-26T23:18:41.215Z,75596.72
2022-10-26T23:28:47.244Z,75594.69
2022-10-26T23:38:50.364Z,75600.75
2022-10-26T23:48:55.028Z,75621.00
2022-10-26T23:59:05.870Z,75639.22
